Time;durP1;ratioP1;P1;durP2;ratioP2;P2;SDS_P1;SDS_P2;PMS_P1;PMS_P2;Temp;Humidity;BMP_temperature;BMP_pressure;BME280_temperature;BME280_humidity;BME280_pressure;Samples;Min_cycle;Max_cycle;Signal;HPM_P1;HPM_P2
2021/09/23 00:00:14;;;;;;;;;;;;;;;12.14;73.60;100997.20;116966;1188;22857;-76
2021/09/23 00:03:08;;;;;;;;;;;;;;;12.15;73.72;100993.70;116995;1188;22786;-75
2021/09/23 00:05:40;;;;;;;;;;;;;;;12.17;73.79;100988.61;117012;1188;22828;-75
2021/09/23 00:08:09;;;;;;;;;;;;;;;12.18;73.74;100982.35;116988;1184;22589;-76
2021/09/23 00:10:40;;;;;;;;;;;;;;;12.19;73.80;100979.70;116988;1188;22911;-76
2021/09/23 00:13:09;;;;;;;;;;;;;;;12.21;73.84;100975.50;116961;1188;21850;-76
2021/09/23 00:15:40;;;;;;;;;;;;;;;12.22;73.91;100973.05;117000;1188;21886;-77
2021/09/23 00:18:15;;;;;;;;;;;;;;;12.22;73.95;100971.77;116988;1188;23419;-77
2021/09/23 00:20:46;;;;;;;;;;;;;;;12.24;74.10;100973.12;117007;1188;23646;-78
2021/09/23 00:23:16;;;;;;;;;;;;;;;12.24;74.07;100970.10;116994;1184;22508;-77
2021/09/23 00:25:45;;;;;;;;;;;;;;;12.25;74.00;100966.72;116982;1188;22904;-77
2021/09/23 00:28:16;;;;;;;;;;;;;;;12.25;74.08;100963.15;117029;1188;21914;-76
2021/09/23 00:30:46;;;;;;;;;;;;;;;12.26;74.17;100961.49;117003;1188;21868;-75
2021/09/23 00:33:16;;;;;;;;;;;;;;;12.25;74.20;100958.02;116969;1188;21894;-75
2021/09/23 00:35:46;;;;;;;;;;;;;;;12.27;74.28;100955.05;116977;1188;21959;-76
2021/09/23 00:38:15;;;;;;;;;;;;;;;12.27;74.21;100948.88;116954;1188;21976;-76
2021/09/23 00:40:44;;;;;;;;;;;;;;;12.26;74.06;100944.05;117015;1188;21879;-76
2021/09/23 00:43:13;;;;;;;;;;;;;;;12.23;74.03;100940.61;116987;1188;21856;-77
2021/09/23 00:45:43;;;;;;;;;;;;;;;12.21;74.09;100932.92;117008;1188;22833;-77
2021/09/23 00:48:12;;;;;;;;;;;;;;;12.21;74.17;100930.95;116919;1189;22976;-75
2021/09/23 00:50:44;;;;;;;;;;;;;;;12.19;74.13;100923.14;117025;1188;24145;-75
2021/09/23 00:53:20;;;;;;;;;;;;;;;12.17;74.16;100914.70;116941;1189;22728;-76
2021/09/23 00:55:50;;;;;;;;;;;;;;;12.15;74.22;100912.19;116968;1189;23619;-75
2021/09/23 00:58:22;;;;;;;;;;;;;;;12.13;74.43;100906.36;116933;1188;22000;-75
2021/09/23 01:00:53;;;;;;;;;;;;;;;12.12;74.40;100899.06;116977;1188;23521;-75
2021/09/23 01:03:23;;;;;;;;;;;;;;;12.11;74.40;100894.03;117095;1187;22906;-76
2021/09/23 01:05:57;;;;;;;;;;;;;;;12.10;74.57;100894.73;117133;1187;21899;-75
2021/09/23 01:08:26;;;;;;;;;;;;;;;12.09;74.69;100892.48;117112;1184;22707;-76
2021/09/23 01:10:57;;;;;;;;;;;;;;;12.08;74.61;100884.73;116964;1184;23523;-75
2021/09/23 01:13:32;;;;;;;;;;;;;;;12.05;74.67;100881.45;116968;1188;21850;-76
2021/09/23 01:16:07;;;;;;;;;;;;;;;12.04;74.78;100881.82;117099;1188;23619;-75
2021/09/23 01:18:56;;;;;;;;;;;;;;;12.02;74.86;100886.18;116824;1188;23448;-76
2021/09/23 01:21:30;;;;;;;;;;;;;;;12.02;74.97;100887.44;116991;1188;22924;-77
2021/09/23 01:24:00;;;;;;;;;;;;;;;12.00;74.95;100889.90;117120;1188;21957;-76
2021/09/23 01:26:30;;;;;;;;;;;;;;;11.99;75.00;100888.40;116956;1188;21895;-76
2021/09/23 01:29:08;;;;;;;;;;;;;;;12.00;75.25;100888.84;117003;1184;23468;-76
2021/09/23 01:31:44;;;;;;;;;;;;;;;12.02;75.36;100885.48;116996;1188;23611;-76
2021/09/23 01:34:14;;;;;;;;;;;;;;;12.03;75.48;100886.11;117033;1189;21864;-76
2021/09/23 01:36:43;;;;;;;;;;;;;;;12.02;75.41;100885.81;116977;1189;24154;-76
2021/09/23 01:39:21;;;;;;;;;;;;;;;12.03;75.42;100889.80;116952;1189;21905;-77
2021/09/23 01:41:51;;;;;;;;;;;;;;;12.03;75.53;100889.08;116936;1189;21889;-76
2021/09/23 01:44:26;;;;;;;;;;;;;;;12.04;75.70;100890.02;116970;1189;23438;-76
2021/09/23 01:46:57;;;;;;;;;;;;;;;12.05;75.85;100887.08;116883;1188;22922;-76
2021/09/23 01:49:31;;;;;;;;;;;;;;;12.07;75.83;100885.50;116934;1187;21916;-76
2021/09/23 01:52:00;;;;;;;;;;;;;;;12.08;75.89;100885.33;117012;1187;24179;-77
2021/09/23 01:54:29;;;;;;;;;;;;;;;12.10;75.97;100879.35;117121;1187;21991;-75
2021/09/23 01:56:58;;;;;;;;;;;;;;;12.12;75.93;100874.37;116896;1187;22691;-75
2021/09/23 01:59:27;;;;;;;;;;;;;;;12.13;75.84;100875.30;116855;1190;23539;-76
2021/09/23 02:02:02;;;;;;;;;;;;;;;12.13;75.85;100874.05;116816;1190;23447;-77
2021/09/23 02:04:33;;;;;;;;;;;;;;;12.14;76.00;100872.52;116850;1190;21877;-76
2021/09/23 02:07:04;;;;;;;;;;;;;;;12.15;76.01;100874.37;116801;1190;21894;-75
2021/09/23 02:09:34;;;;;;;;;;;;;;;12.15;76.07;100872.61;116699;1191;22961;-78
2021/09/23 02:12:04;;;;;;;;;;;;;;;12.16;75.99;100868.41;116972;1189;21889;-75
2021/09/23 02:14:35;;;;;;;;;;;;;;;12.18;76.18;100870.37;116844;1190;21850;-75
2021/09/23 02:17:05;;;;;;;;;;;;;;;12.18;76.06;100873.48;116865;1190;23069;-75
2021/09/23 02:19:46;;;;;;;;;;;;;;;12.19;76.08;100872.55;116713;1190;21865;-76
2021/09/23 02:22:16;;;;;;;;;;;;;;;12.20;76.09;100866.82;116874;1190;21996;-75
2021/09/23 02:24:48;;;;;;;;;;;;;;;12.21;76.15;100866.66;116981;1188;23078;-75
2021/09/23 02:27:18;;;;;;;;;;;;;;;12.22;76.20;100867.02;117127;1187;23477;-75
2021/09/23 02:29:48;;;;;;;;;;;;;;;12.22;76.06;100862.68;117165;1187;21886;-76
2021/09/23 02:32:17;;;;;;;;;;;;;;;12.21;75.97;100855.20;117021;1188;22091;-76
2021/09/23 02:34:48;;;;;;;;;;;;;;;12.22;76.15;100854.70;117041;1188;21867;-77
2021/09/23 02:37:17;;;;;;;;;;;;;;;12.22;76.23;100851.52;117153;1187;22812;-75
2021/09/23 02:39:46;;;;;;;;;;;;;;;12.23;76.42;100848.02;117120;1184;23670;-76
2021/09/23 02:42:15;;;;;;;;;;;;;;;12.26;76.45;100844.61;116955;1189;23740;-77
2021/09/23 02:44:45;;;;;;;;;;;;;;;12.27;76.38;100842.77;116967;1189;21880;-75
2021/09/23 02:47:14;;;;;;;;;;;;;;;12.28;76.43;100837.13;117046;1189;21879;-76
2021/09/23 02:49:44;;;;;;;;;;;;;;;12.31;76.63;100837.06;117064;1189;21873;-76
2021/09/23 02:52:13;;;;;;;;;;;;;;;12.32;76.55;100833.02;117103;1189;23414;-74
2021/09/23 02:54:42;;;;;;;;;;;;;;;12.34;76.56;100829.27;117036;1189;21854;-75
2021/09/23 02:57:11;;;;;;;;;;;;;;;12.36;76.44;100824.40;117090;1189;21932;-75
2021/09/23 02:59:40;;;;;;;;;;;;;;;12.38;76.36;100824.69;117071;1189;22637;-75
2021/09/23 03:02:09;;;;;;;;;;;;;;;12.40;76.23;100819.77;117094;1189;21923;-75
2021/09/23 03:04:39;;;;;;;;;;;;;;;12.39;76.23;100818.55;117070;1187;21885;-75
2021/09/23 03:07:08;;;;;;;;;;;;;;;12.40;76.19;100807.60;117033;1189;21881;-75
2021/09/23 03:09:37;;;;;;;;;;;;;;;12.40;76.21;100797.48;117124;1189;21859;-75
2021/09/23 03:12:07;;;;;;;;;;;;;;;12.41;76.15;100792.80;117263;1184;21894;-76
2021/09/23 03:14:36;;;;;;;;;;;;;;;12.41;76.10;100793.98;117085;1189;22861;-76
2021/09/23 03:17:09;;;;;;;;;;;;;;;12.39;75.96;100791.22;117094;1189;21876;-76
2021/09/23 03:19:39;;;;;;;;;;;;;;;12.37;76.03;100789.53;117094;1188;21883;-75
2021/09/23 03:22:10;;;;;;;;;;;;;;;12.39;76.16;100784.75;117084;1189;23698;-75
2021/09/23 03:24:39;;;;;;;;;;;;;;;12.41;76.12;100778.69;117105;1189;21948;-76
2021/09/23 03:27:08;;;;;;;;;;;;;;;12.42;76.12;100772.16;117090;1189;23410;-76
2021/09/23 03:29:37;;;;;;;;;;;;;;;12.42;76.13;100766.45;117151;1188;21924;-76
2021/09/23 03:32:06;;;;;;;;;;;;;;;12.42;75.89;100761.55;117240;1184;22853;-76
2021/09/23 03:34:36;;;;;;;;;;;;;;;12.41;75.85;100760.27;117246;1187;21889;-76
2021/09/23 03:37:05;;;;;;;;;;;;;;;12.42;76.00;100755.10;117123;1189;22848;-76
2021/09/23 03:39:35;;;;;;;;;;;;;;;12.42;75.88;100749.02;117088;1189;21869;-76
2021/09/23 03:42:04;;;;;;;;;;;;;;;12.43;75.93;100748.71;117121;1189;21856;-76
2021/09/23 03:44:34;;;;;;;;;;;;;;;12.44;75.80;100748.52;117088;1186;21884;-76
2021/09/23 03:47:04;;;;;;;;;;;;;;;12.42;75.56;100746.95;117119;1187;21891;-76
2021/09/23 03:49:33;;;;;;;;;;;;;;;12.39;75.50;100750.40;117114;1188;23494;-76
2021/09/23 03:52:03;;;;;;;;;;;;;;;12.37;75.53;100746.24;117074;1189;21864;-76
2021/09/23 03:54:33;;;;;;;;;;;;;;;12.36;75.47;100742.66;117066;1189;23524;-76
2021/09/23 03:57:03;;;;;;;;;;;;;;;12.34;75.34;100736.67;117082;1189;22789;-75
2021/09/23 03:59:33;;;;;;;;;;;;;;;12.33;75.45;100738.93;117091;1189;23436;-75
2021/09/23 04:02:02;;;;;;;;;;;;;;;12.32;75.38;100740.06;117102;1189;22807;-76
2021/09/23 04:04:32;;;;;;;;;;;;;;;12.32;75.59;100736.35;117054;1189;23445;-76
2021/09/23 04:07:01;;;;;;;;;;;;;;;12.33;75.58;100737.54;117172;1189;22903;-76
2021/09/23 04:09:33;;;;;;;;;;;;;;;12.32;75.74;100733.52;117103;1189;24709;-76
2021/09/23 04:12:02;;;;;;;;;;;;;;;12.32;75.66;100729.83;117095;1189;21873;-77
2021/09/23 04:14:32;;;;;;;;;;;;;;;12.32;75.66;100729.52;116986;1189;21900;-76
2021/09/23 04:17:05;;;;;;;;;;;;;;;12.33;75.79;100729.76;117097;1189;22940;-76
2021/09/23 04:19:41;;;;;;;;;;;;;;;12.34;75.87;100728.60;117147;1189;21861;-76
2021/09/23 04:22:11;;;;;;;;;;;;;;;12.35;75.72;100731.81;117132;1189;21875;-76
2021/09/23 04:24:42;;;;;;;;;;;;;;;12.34;75.71;100723.23;117053;1189;21954;-75
2021/09/23 04:27:13;;;;;;;;;;;;;;;12.34;75.82;100716.14;117118;1189;23419;-75
2021/09/23 04:29:51;;;;;;;;;;;;;;;12.35;75.91;100711.09;117160;1189;21863;-76
2021/09/23 04:32:25;;;;;;;;;;;;;;;12.36;75.88;100713.70;117238;1188;23460;-75
2021/09/23 04:35:01;;;;;;;;;;;;;;;12.36;75.75;100712.44;117243;1187;22994;-75
2021/09/23 04:37:31;;;;;;;;;;;;;;;12.35;75.68;100704.95;117158;1187;21891;-75
2021/09/23 04:40:00;;;;;;;;;;;;;;;12.35;75.71;100700.17;117221;1188;21884;-76
2021/09/23 04:42:30;;;;;;;;;;;;;;;12.34;75.65;100694.98;117273;1187;21880;-75
2021/09/23 04:45:05;;;;;;;;;;;;;;;12.35;75.69;100700.21;117137;1185;23629;-75
2021/09/23 04:47:48;;;;;;;;;;;;;;;12.35;75.82;100697.77;117251;1188;22277;-75
2021/09/23 04:50:18;;;;;;;;;;;;;;;12.36;75.85;100694.82;117260;1188;22010;-76
2021/09/23 04:52:47;;;;;;;;;;;;;;;12.35;75.73;100691.14;117318;1187;22879;-74
2021/09/23 04:55:17;;;;;;;;;;;;;;;12.35;75.62;100687.30;117218;1187;22913;-75
2021/09/23 04:57:46;;;;;;;;;;;;;;;12.35;75.63;100681.34;117224;1187;23678;-75
2021/09/23 05:00:23;;;;;;;;;;;;;;;12.34;75.64;100675.58;117213;1187;21897;-74
2021/09/23 05:02:53;;;;;;;;;;;;;;;12.33;75.65;100668.30;117233;1187;21856;-75
2021/09/23 05:05:27;;;;;;;;;;;;;;;12.29;75.39;100659.20;117202;1187;21890;-75
2021/09/23 05:07:57;;;;;;;;;;;;;;;12.26;75.46;100660.94;117331;1187;23573;-75
2021/09/23 05:10:30;;;;;;;;;;;;;;;12.25;75.67;100664.02;117250;1187;21871;-74
2021/09/23 05:12:59;;;;;;;;;;;;;;;12.25;75.65;100663.65;117225;1184;21859;-75
2021/09/23 05:15:29;;;;;;;;;;;;;;;12.27;75.93;100664.31;117380;1187;22904;-74
2021/09/23 05:17:58;;;;;;;;;;;;;;;12.30;75.90;100664.52;117230;1187;23421;-74
2021/09/23 05:20:27;;;;;;;;;;;;;;;12.35;76.01;100668.66;117203;1187;23538;-74
2021/09/23 05:22:57;;;;;;;;;;;;;;;12.37;75.98;100659.51;117223;1184;21878;-74
2021/09/23 05:25:29;;;;;;;;;;;;;;;12.39;75.93;100657.84;117227;1187;23441;-75
2021/09/23 05:27:59;;;;;;;;;;;;;;;12.41;75.91;100658.04;117171;1184;23440;-74
2021/09/23 05:30:28;;;;;;;;;;;;;;;12.43;75.88;100661.80;117193;1187;23424;-74
2021/09/23 05:32:58;;;;;;;;;;;;;;;12.45;75.94;100665.16;117234;1187;22283;-75
2021/09/23 05:35:27;;;;;;;;;;;;;;;12.47;75.99;100669.30;117207;1187;23609;-75
2021/09/23 05:37:57;;;;;;;;;;;;;;;12.50;75.86;100672.94;117110;1187;23655;-75
2021/09/23 05:40:26;;;;;;;;;;;;;;;12.53;75.80;100671.52;117101;1188;22922;-76
2021/09/23 05:42:55;;;;;;;;;;;;;;;12.59;76.10;100671.56;117196;1187;21964;-76
2021/09/23 05:45:25;;;;;;;;;;;;;;;12.66;75.88;100672.73;117240;1187;22087;-76
2021/09/23 05:47:55;;;;;;;;;;;;;;;12.72;75.93;100672.23;117303;1187;22854;-76
2021/09/23 05:50:24;;;;;;;;;;;;;;;12.79;75.81;100666.10;117237;1187;21939;-76
2021/09/23 05:52:54;;;;;;;;;;;;;;;12.86;75.69;100663.30;117239;1187;23517;-76
2021/09/23 05:55:25;;;;;;;;;;;;;;;12.92;75.64;100655.38;117158;1188;21932;-76
2021/09/23 05:57:56;;;;;;;;;;;;;;;12.98;75.37;100658.66;117341;1184;21960;-76
2021/09/23 06:00:25;;;;;;;;;;;;;;;13.01;75.03;100662.02;117367;1187;22890;-76
2021/09/23 06:02:55;;;;;;;;;;;;;;;13.05;74.80;100660.87;117241;1187;21867;-76
2021/09/23 06:05:27;;;;;;;;;;;;;;;13.07;74.43;100658.23;117196;1187;21881;-76
2021/09/23 06:07:57;;;;;;;;;;;;;;;13.08;74.25;100658.13;117229;1187;22901;-76
2021/09/23 06:10:27;;;;;;;;;;;;;;;13.12;74.39;100658.95;117320;1187;21859;-76
2021/09/23 06:12:56;;;;;;;;;;;;;;;13.13;74.12;100651.56;117222;1187;22578;-76
2021/09/23 06:15:26;;;;;;;;;;;;;;;13.16;74.28;100648.92;117243;1187;21865;-76
2021/09/23 06:17:55;;;;;;;;;;;;;;;13.25;74.62;100644.23;116919;1190;21996;-75
2021/09/23 06:20:28;;;;;;;;;;;;;;;13.36;74.65;100639.88;117010;1187;21935;-79
2021/09/23 06:23:00;;;;;;;;;;;;;;;13.50;74.89;100640.41;116933;1190;21863;-81
2021/09/23 06:25:31;;;;;;;;;;;;;;;13.65;74.55;100637.18;117040;1190;22318;-76
2021/09/23 06:28:01;;;;;;;;;;;;;;;13.73;73.84;100633.98;116939;1190;22288;-76
2021/09/23 06:30:30;;;;;;;;;;;;;;;13.81;73.70;100637.59;117003;1189;22950;-76
2021/09/23 06:32:59;;;;;;;;;;;;;;;13.89;73.46;100627.81;116984;1190;22946;-76
2021/09/23 06:35:29;;;;;;;;;;;;;;;13.98;73.30;100627.85;117004;1190;21914;-76
2021/09/23 06:37:58;;;;;;;;;;;;;;;14.04;72.98;100625.73;116903;1190;22266;-76
2021/09/23 06:40:28;;;;;;;;;;;;;;;14.09;72.84;100625.60;116771;1192;23415;-76
2021/09/23 06:42:57;;;;;;;;;;;;;;;14.18;72.91;100628.12;116646;1190;24097;-76
2021/09/23 06:45:27;;;;;;;;;;;;;;;14.26;72.66;100630.84;116890;1190;23886;-76
2021/09/23 06:47:56;;;;;;;;;;;;;;;14.37;72.49;100628.86;116787;1191;23500;-76
2021/09/23 06:50:26;;;;;;;;;;;;;;;14.45;72.10;100626.66;116886;1191;21901;-75
2021/09/23 06:52:55;;;;;;;;;;;;;;;14.50;71.78;100622.81;116759;1187;22845;-75
2021/09/23 06:55:24;;;;;;;;;;;;;;;14.55;71.56;100621.13;116899;1191;21944;-76
2021/09/23 06:57:54;;;;;;;;;;;;;;;14.57;71.02;100619.47;116872;1188;22220;-76
2021/09/23 07:00:42;;;;;;;;;;;;;;;14.61;70.96;100615.50;117188;1187;23459;-76
2021/09/23 07:03:41;;;;;;;;;;;;;;;14.68;71.01;100621.35;117270;1184;21909;-77
2021/09/23 07:06:22;;;;;;;;;;;;;;;14.79;71.30;100621.78;117245;1188;21894;-76
2021/09/23 07:08:53;;;;;;;;;;;;;;;14.95;71.30;100622.77;117139;1188;22741;-75
2021/09/23 07:11:24;;;;;;;;;;;;;;;15.22;71.95;100616.47;117008;1190;21993;-76
2021/09/23 07:13:53;;;;;;;;;;;;;;;15.53;72.02;100611.80;117048;1189;21867;-77
2021/09/23 07:16:22;;;;;;;;;;;;;;;15.78;70.70;100613.30;116772;1192;22282;-76
2021/09/23 07:18:52;;;;;;;;;;;;;;;15.99;70.24;100610.73;116936;1190;23523;-76
2021/09/23 07:21:22;;;;;;;;;;;;;;;16.31;70.30;100613.96;116798;1191;23467;-77
2021/09/23 07:23:52;;;;;;;;;;;;;;;16.65;69.74;100616.10;116792;1191;22289;-77
2021/09/23 07:26:21;;;;;;;;;;;;;;;16.88;68.24;100618.64;116805;1187;23447;-77
2021/09/23 07:28:50;;;;;;;;;;;;;;;17.13;67.63;100613.70;116843;1191;22922;-77
2021/09/23 07:31:23;;;;;;;;;;;;;;;17.33;66.49;100609.23;116839;1191;21884;-77
2021/09/23 07:33:52;;;;;;;;;;;;;;;17.56;66.05;100607.53;116818;1189;21922;-77
2021/09/23 07:36:24;;;;;;;;;;;;;;;17.77;65.06;100603.45;117011;1187;21898;-77
2021/09/23 07:38:53;;;;;;;;;;;;;;;17.99;65.07;100599.04;117037;1189;23517;-77
2021/09/23 07:41:22;;;;;;;;;;;;;;;18.25;64.45;100600.06;116925;1186;21864;-78
2021/09/23 07:43:51;;;;;;;;;;;;;;;18.51;64.25;100598.50;116786;1191;21913;-77
2021/09/23 07:46:25;;;;;;;;;;;;;;;18.86;63.99;100600.00;116799;1191;22630;-77
2021/09/23 07:48:54;;;;;;;;;;;;;;;19.15;62.90;100596.23;116793;1191;23061;-77
2021/09/23 07:51:24;;;;;;;;;;;;;;;19.42;62.33;100592.08;116749;1191;22949;-77
2021/09/23 07:53:53;;;;;;;;;;;;;;;19.69;61.56;100589.61;116801;1192;21881;-77
2021/09/23 07:56:26;;;;;;;;;;;;;;;19.83;60.00;100587.04;116457;1195;22153;-77
2021/09/23 07:58:56;;;;;;;;;;;;;;;19.68;57.89;100585.70;116489;1195;21929;-77
2021/09/23 08:01:25;;;;;;;;;;;;;;;19.41;57.87;100580.05;116481;1195;21916;-77
2021/09/23 08:03:56;;;;;;;;;;;;;;;19.21;58.13;100575.20;116540;1195;21884;-78
2021/09/23 08:06:26;;;;;;;;;;;;;;;19.03;58.62;100576.91;116500;1195;21888;-76
2021/09/23 08:08:57;;;;;;;;;;;;;;;18.79;58.62;100578.89;116586;1192;21875;-75
2021/09/23 08:11:27;;;;;;;;;;;;;;;18.49;58.52;100575.39;116849;1192;21880;-76
2021/09/23 08:14:05;;;;;;;;;;;;;;;18.23;59.28;100567.45;116835;1189;21870;-76
2021/09/23 08:16:38;;;;;;;;;;;;;;;18.05;60.02;100566.75;116844;1190;22400;-75
2021/09/23 08:19:45;;;;;;;;;;;;;;;17.82;60.31;100566.89;116859;1186;21865;-78
2021/09/23 08:22:26;;;;;;;;;;;;;;;17.61;60.85;100568.77;116857;1190;22058;-77
2021/09/23 08:25:06;;;;;;;;;;;;;;;17.42;61.20;100571.02;116899;1190;23457;-78
2021/09/23 08:27:36;;;;;;;;;;;;;;;17.27;61.70;100568.28;116958;1190;21893;-74
2021/09/23 08:30:08;;;;;;;;;;;;;;;17.12;62.01;100566.64;116639;1192;21884;-76
2021/09/23 08:32:38;;;;;;;;;;;;;;;17.00;62.24;100569.35;116548;1190;21962;-77
2021/09/23 08:35:08;;;;;;;;;;;;;;;16.91;62.66;100573.40;116628;1192;21929;-76
2021/09/23 08:37:38;;;;;;;;;;;;;;;16.82;62.83;100566.88;116759;1192;21884;-76
2021/09/23 08:40:12;;;;;;;;;;;;;;;16.74;63.02;100567.94;116774;1192;21874;-75
2021/09/23 08:42:44;;;;;;;;;;;;;;;16.69;63.48;100571.98;116786;1192;21866;-76
2021/09/23 08:45:17;;;;;;;;;;;;;;;16.71;64.17;100567.69;116728;1192;23547;-75
2021/09/23 08:47:46;;;;;;;;;;;;;;;16.83;64.81;100551.85;116808;1189;21847;-75
2021/09/23 08:50:17;;;;;;;;;;;;;;;17.01;64.87;100543.23;117005;1186;22735;-75
2021/09/23 08:52:49;;;;;;;;;;;;;;;17.12;64.15;100534.45;117047;1189;22915;-76
2021/09/23 08:55:30;;;;;;;;;;;;;;;17.10;63.23;100528.17;116866;1190;21940;-78
2021/09/23 08:58:06;;;;;;;;;;;;;;;17.05;63.12;100522.67;117010;1189;21878;-77
2021/09/23 09:00:57;;;;;;;;;;;;;;;17.01;63.16;100516.63;116676;1192;24359;-78
2021/09/23 09:03:32;;;;;;;;;;;;;;;16.99;63.41;100502.75;116815;1192;21891;-77
2021/09/23 09:06:16;;;;;;;;;;;;;;;17.01;63.58;100483.45;116781;1192;21894;-77
2021/09/23 09:08:53;;;;;;;;;;;;;;;17.00;63.23;100471.84;116764;1192;22806;-78
2021/09/23 09:11:30;;;;;;;;;;;;;;;17.00;63.34;100473.13;116581;1192;21877;-77
2021/09/23 09:14:01;;;;;;;;;;;;;;;17.01;63.46;100474.27;116509;1194;21910;-78
2021/09/23 09:16:31;;;;;;;;;;;;;;;17.01;63.32;100477.66;116501;1190;22120;-78
2021/09/23 09:19:05;;;;;;;;;;;;;;;17.00;63.36;100482.92;116691;1192;23533;-78
2021/09/23 09:21:36;;;;;;;;;;;;;;;17.05;63.87;100477.84;116621;1193;23013;-77
2021/09/23 09:24:05;;;;;;;;;;;;;;;17.20;64.37;100460.89;116822;1192;23419;-80
2021/09/23 09:26:43;;;;;;;;;;;;;;;17.47;64.84;100453.70;116852;1192;21878;-80
2021/09/23 09:29:19;;;;;;;;;;;;;;;17.80;64.22;100451.84;116825;1192;21868;-79
2021/09/23 09:31:49;;;;;;;;;;;;;;;17.99;63.04;100452.98;116673;1190;22282;-83
2021/09/23 09:34:20;;;;;;;;;;;;;;;18.12;62.52;100451.71;117138;1189;22951;-79
2021/09/23 09:36:53;;;;;;;;;;;;;;;18.29;62.35;100448.52;116998;1189;21888;-79
2021/09/23 09:39:27;;;;;;;;;;;;;;;18.45;61.68;100445.61;117133;1189;24321;-76
2021/09/23 09:42:00;;;;;;;;;;;;;;;18.62;61.51;100435.58;116988;1190;23448;-74
2021/09/23 09:44:32;;;;;;;;;;;;;;;18.70;60.66;100433.93;116913;1190;23449;-74
2021/09/23 09:47:04;;;;;;;;;;;;;;;18.73;60.32;100428.67;116973;1189;21865;-73
2021/09/23 09:49:33;;;;;;;;;;;;;;;18.69;60.17;100426.08;117035;1189;22624;-74
2021/09/23 09:52:06;;;;;;;;;;;;;;;18.58;59.97;100419.71;117042;1189;22661;-73
2021/09/23 09:54:38;;;;;;;;;;;;;;;18.40;59.82;100409.27;117031;1184;22282;-75
2021/09/23 09:57:09;;;;;;;;;;;;;;;18.28;60.12;100407.64;117248;1187;21897;-76
2021/09/23 09:59:42;;;;;;;;;;;;;;;18.23;60.35;100409.48;117123;1188;21887;-77
2021/09/23 10:02:13;;;;;;;;;;;;;;;18.17;60.50;100407.63;117243;1187;21887;-77
2021/09/23 10:04:45;;;;;;;;;;;;;;;18.13;60.72;100399.52;117372;1184;23520;-77
2021/09/23 10:07:16;;;;;;;;;;;;;;;18.08;60.91;100395.55;117124;1189;22750;-79
2021/09/23 10:09:48;;;;;;;;;;;;;;;18.06;61.04;100390.54;117284;1187;24137;-74
2021/09/23 10:12:19;;;;;;;;;;;;;;;18.02;60.98;100387.88;116914;1190;23468;-75
2021/09/23 10:14:50;;;;;;;;;;;;;;;17.98;60.91;100386.88;116829;1191;23561;-75
2021/09/23 10:17:24;;;;;;;;;;;;;;;17.96;61.12;100382.68;116927;1190;22857;-75
2021/09/23 10:19:53;;;;;;;;;;;;;;;17.94;61.12;100370.77;116831;1190;22900;-74
2021/09/23 10:22:23;;;;;;;;;;;;;;;17.99;61.61;100361.90;116868;1190;22372;-76
2021/09/23 10:24:54;;;;;;;;;;;;;;;18.06;61.67;100357.44;116867;1190;22928;-76
2021/09/23 10:30:12;;;;;;;;;;;;;;;18.40;62.57;100361.95;116947;1188;22919;-75
2021/09/23 10:32:42;;;;;;;;;;;;;;;18.76;62.55;100349.17;117270;1187;22000;-74
2021/09/23 10:35:15;;;;;;;;;;;;;;;18.98;60.98;100344.58;117361;1184;21862;-75
2021/09/23 10:37:45;;;;;;;;;;;;;;;18.99;59.49;100343.61;117288;1187;21862;-75
2021/09/23 10:40:16;;;;;;;;;;;;;;;18.97;59.22;100342.38;117227;1187;23421;-78
2021/09/23 10:42:47;;;;;;;;;;;;;;;19.00;59.50;100335.63;117258;1189;21886;-78
2021/09/23 10:45:27;;;;;;;;;;;;;;;19.17;59.58;100326.83;117302;1189;22337;-78
2021/09/23 10:48:05;;;;;;;;;;;;;;;19.30;59.03;100311.70;117037;1189;22854;-75
2021/09/23 10:50:39;;;;;;;;;;;;;;;19.43;58.84;100306.13;117138;1187;24497;-75
2021/09/23 10:53:10;;;;;;;;;;;;;;;19.68;59.17;100308.08;117143;1189;22057;-75
2021/09/23 10:55:47;;;;;;;;;;;;;;;19.94;58.44;100306.48;116799;1191;21922;-76
2021/09/23 10:58:20;;;;;;;;;;;;;;;19.97;56.94;100301.27;116779;1191;21900;-75
2021/09/23 11:00:50;;;;;;;;;;;;;;;19.96;56.68;100294.00;116829;1187;21889;-74
2021/09/23 11:03:20;;;;;;;;;;;;;;;19.89;56.40;100287.45;116733;1191;22270;-74
2021/09/23 11:05:53;;;;;;;;;;;;;;;19.84;56.64;100285.92;116835;1191;21875;-75
2021/09/23 11:08:22;;;;;;;;;;;;;;;19.79;56.54;100284.13;116918;1190;21962;-75
2021/09/23 11:10:53;;;;;;;;;;;;;;;19.65;56.29;100282.91;116968;1187;22320;-75
2021/09/23 11:13:24;;;;;;;;;;;;;;;19.53;56.51;100281.45;117022;1188;21878;-75
2021/09/23 11:15:54;;;;;;;;;;;;;;;19.45;56.68;100275.10;117103;1188;23501;-75
2021/09/23 11:18:23;;;;;;;;;;;;;;;19.39;56.82;100269.30;117216;1188;22956;-75
2021/09/23 11:20:54;;;;;;;;;;;;;;;19.35;57.13;100263.95;117234;1187;23607;-74
2021/09/23 11:23:27;;;;;;;;;;;;;;;19.34;57.29;100257.77;117131;1188;21873;-74
2021/09/23 11:25:56;;;;;;;;;;;;;;;19.30;57.08;100252.07;117226;1187;23466;-74
2021/09/23 11:28:27;;;;;;;;;;;;;;;19.25;56.97;100247.73;117217;1187;22634;-74
2021/09/23 11:30:58;;;;;;;;;;;;;;;19.23;57.01;100240.92;117210;1187;21914;-73
2021/09/23 11:33:29;;;;;;;;;;;;;;;19.19;57.01;100238.05;117283;1187;23520;-76
2021/09/23 11:36:00;;;;;;;;;;;;;;;19.11;56.76;100238.89;117239;1186;22904;-75
2021/09/23 11:38:29;;;;;;;;;;;;;;;19.10;57.02;100235.81;117129;1187;21895;-73
2021/09/23 11:41:00;;;;;;;;;;;;;;;19.13;57.18;100232.27;117243;1187;21983;-74
2021/09/23 11:43:30;;;;;;;;;;;;;;;19.14;57.12;100224.03;117233;1187;21868;-74
2021/09/23 11:46:01;;;;;;;;;;;;;;;19.16;57.20;100222.35;117233;1188;23350;-72
2021/09/23 11:48:35;;;;;;;;;;;;;;;19.17;57.11;100221.10;117196;1188;21878;-73
2021/09/23 11:51:13;;;;;;;;;;;;;;;19.14;56.91;100215.55;117202;1187;22106;-72
2021/09/23 11:53:53;;;;;;;;;;;;;;;19.09;56.72;100212.77;116792;1191;22985;-73
2021/09/23 11:56:23;;;;;;;;;;;;;;;19.06;56.61;100204.38;116811;1192;21879;-77
2021/09/23 11:58:54;;;;;;;;;;;;;;;18.98;56.24;100204.06;116485;1194;21879;-73
2021/09/23 12:01:28;;;;;;;;;;;;;;;18.93;56.32;100196.30;116526;1193;21872;-74
2021/09/23 12:03:58;;;;;;;;;;;;;;;18.94;56.86;100197.52;116499;1193;21897;-74
2021/09/23 12:06:31;;;;;;;;;;;;;;;18.95;56.87;100193.89;116483;1190;21889;-74
2021/09/23 12:09:13;;;;;;;;;;;;;;;18.91;56.80;100191.39;116495;1194;22948;-73
2021/09/23 12:11:48;;;;;;;;;;;;;;;18.87;56.91;100183.98;116536;1192;21870;-73
2021/09/23 12:14:22;;;;;;;;;;;;;;;18.84;56.95;100183.06;116756;1191;21901;-73
2021/09/23 12:17:02;;;;;;;;;;;;;;;18.81;57.00;100178.06;116947;1188;21897;-72
2021/09/23 12:19:34;;;;;;;;;;;;;;;18.79;57.01;100168.65;117171;1188;22996;-72
2021/09/23 12:22:05;;;;;;;;;;;;;;;18.77;56.94;100167.40;117234;1187;21938;-73
2021/09/23 12:24:41;;;;;;;;;;;;;;;18.73;56.96;100157.12;117220;1187;23550;-73
2021/09/23 12:27:25;;;;;;;;;;;;;;;18.72;57.14;100147.83;117209;1188;23680;-73
2021/09/23 12:29:58;;;;;;;;;;;;;;;18.70;57.14;100138.70;117199;1188;21985;-73
2021/09/23 12:32:42;;;;;;;;;;;;;;;18.65;57.16;100132.01;117227;1187;21862;-74
2021/09/23 12:35:16;;;;;;;;;;;;;;;18.64;57.10;100129.89;117214;1187;21884;-74
2021/09/23 12:37:49;;;;;;;;;;;;;;;18.61;57.05;100125.73;116901;1190;21886;-73
2021/09/23 12:40:38;;;;;;;;;;;;;;;18.59;57.13;100117.10;116479;1194;21886;-74
2021/09/23 12:43:15;;;;;;;;;;;;;;;18.57;57.15;100113.17;116496;1194;22630;-75
2021/09/23 12:46:10;;;;;;;;;;;;;;;18.55;57.20;100110.91;116464;1194;21862;-74
2021/09/23 12:48:40;;;;;;;;;;;;;;;18.52;56.96;100106.45;116540;1194;22295;-74
2021/09/23 12:51:10;;;;;;;;;;;;;;;18.50;56.95;100095.91;116418;1194;23544;-74
2021/09/23 12:53:40;;;;;;;;;;;;;;;18.51;56.86;100089.19;116460;1190;21889;-74